sensor_id;sensor_type;location;lat;lon;timestamp;temperature;humidity
61253;DHT22;47127;47.516;8.596;2023-04-03T00:01:31;8.60;99.90
61253;DHT22;47127;47.516;8.596;2023-04-03T00:03:56;8.30;99.90
61253;DHT22;47127;47.516;8.596;2023-04-03T00:06:22;8.50;99.90
61253;DHT22;47127;47.516;8.596;2023-04-03T00:08:48;8.30;99.90
61253;DHT22;47127;47.516;8.596;2023-04-03T00:11:14;8.20;99.90
61253;DHT22;47127;47.516;8.596;2023-04-03T00:13:41;8.30;99.90
61253;DHT22;47127;47.516;8.596;2023-04-03T00:16:08;8.30;99.90
61253;DHT22;47127;47.516;8.596;2023-04-03T00:18:34;8.20;99.90
61253;DHT22;47127;47.516;8.596;2023-04-03T00:21:00;8.00;99.90
61253;DHT22;47127;47.516;8.596;2023-04-03T00:23:26;8.10;99.90
61253;DHT22;47127;47.516;8.596;2023-04-03T00:25:52;8.00;99.90
61253;DHT22;47127;47.516;8.596;2023-04-03T00:28:18;8.00;99.90
61253;DHT22;47127;47.516;8.596;2023-04-03T00:30:44;7.90;99.90
61253;DHT22;47127;47.516;8.596;2023-04-03T00:33:13;8.00;99.90
61253;DHT22;47127;47.516;8.596;2023-04-03T00:35:39;8.10;99.90
61253;DHT22;47127;47.516;8.596;2023-04-03T00:38:05;8.20;99.90
61253;DHT22;47127;47.516;8.596;2023-04-03T00:40:36;8.30;99.90
61253;DHT22;47127;47.516;8.596;2023-04-03T00:43:11;8.30;99.90
61253;DHT22;47127;47.516;8.596;2023-04-03T00:45:51;8.20;99.90
61253;DHT22;47127;47.516;8.596;2023-04-03T00:48:37;8.20;99.90
61253;DHT22;47127;47.516;8.596;2023-04-03T00:51:07;8.20;99.90
61253;DHT22;47127;47.516;8.596;2023-04-03T00:53:38;7.90;99.90
61253;DHT22;47127;47.516;8.596;2023-04-03T00:56:08;7.80;99.90
61253;DHT22;47127;47.516;8.596;2023-04-03T00:58:56;7.70;99.90
61253;DHT22;47127;47.516;8.596;2023-04-03T01:01:25;7.50;99.90
61253;DHT22;47127;47.516;8.596;2023-04-03T01:03:52;7.50;99.90
61253;DHT22;47127;47.516;8.596;2023-04-03T01:06:22;7.50;99.90
61253;DHT22;47127;47.516;8.596;2023-04-03T01:08:50;7.50;99.90
61253;DHT22;47127;47.516;8.596;2023-04-03T01:11:16;7.40;99.90
61253;DHT22;47127;47.516;8.596;2023-04-03T01:13:42;7.40;99.90
61253;DHT22;47127;47.516;8.596;2023-04-03T01:16:08;7.30;99.90
61253;DHT22;47127;47.516;8.596;2023-04-03T01:18:36;7.30;99.90
61253;DHT22;47127;47.516;8.596;2023-04-03T01:23:56;7.50;99.90
61253;DHT22;47127;47.516;8.596;2023-04-03T01:26:24;7.50;99.90
61253;DHT22;47127;47.516;8.596;2023-04-03T01:28:53;7.40;99.90
61253;DHT22;47127;47.516;8.596;2023-04-03T01:31:55;7.30;99.90
61253;DHT22;47127;47.516;8.596;2023-04-03T01:34:22;7.30;99.90
61253;DHT22;47127;47.516;8.596;2023-04-03T01:36:48;7.20;99.90
61253;DHT22;47127;47.516;8.596;2023-04-03T01:39:14;7.20;99.90
61253;DHT22;47127;47.516;8.596;2023-04-03T01:41:39;7.20;99.90
61253;DHT22;47127;47.516;8.596;2023-04-03T01:44:05;7.20;99.90
61253;DHT22;47127;47.516;8.596;2023-04-03T01:46:31;7.10;99.90
61253;DHT22;47127;47.516;8.596;2023-04-03T01:48:57;8.10;99.90
61253;DHT22;47127;47.516;8.596;2023-04-03T01:51:23;7.00;99.90
61253;DHT22;47127;47.516;8.596;2023-04-03T01:53:48;6.90;99.90
61253;DHT22;47127;47.516;8.596;2023-04-03T01:56:14;7.60;99.90
61253;DHT22;47127;47.516;8.596;2023-04-03T01:58:39;6.90;99.90
61253;DHT22;47127;47.516;8.596;2023-04-03T02:01:05;6.70;99.90
61253;DHT22;47127;47.516;8.596;2023-04-03T02:03:31;6.90;99.90
61253;DHT22;47127;47.516;8.596;2023-04-03T02:05:57;6.90;99.90
61253;DHT22;47127;47.516;8.596;2023-04-03T02:08:22;6.90;99.90
61253;DHT22;47127;47.516;8.596;2023-04-03T02:10:51;6.70;99.90
61253;DHT22;47127;47.516;8.596;2023-04-03T02:13:18;6.70;99.90
61253;DHT22;47127;47.516;8.596;2023-04-03T02:15:43;6.80;99.90
61253;DHT22;47127;47.516;8.596;2023-04-03T02:18:10;6.90;99.90
61253;DHT22;47127;47.516;8.596;2023-04-03T02:20:36;6.70;99.90
61253;DHT22;47127;47.516;8.596;2023-04-03T02:23:02;6.60;99.90
61253;DHT22;47127;47.516;8.596;2023-04-03T02:25:30;6.60;99.90
61253;DHT22;47127;47.516;8.596;2023-04-03T02:27:56;6.60;99.90
61253;DHT22;47127;47.516;8.596;2023-04-03T02:30:21;6.60;99.90
61253;DHT22;47127;47.516;8.596;2023-04-03T02:32:47;6.70;99.90
61253;DHT22;47127;47.516;8.596;2023-04-03T02:35:13;6.70;99.90
61253;DHT22;47127;47.516;8.596;2023-04-03T02:37:39;6.80;99.90
61253;DHT22;47127;47.516;8.596;2023-04-03T02:40:06;6.80;99.90
61253;DHT22;47127;47.516;8.596;2023-04-03T02:42:32;6.60;99.90
61253;DHT22;47127;47.516;8.596;2023-04-03T02:44:57;6.60;99.90
61253;DHT22;47127;47.516;8.596;2023-04-03T02:47:23;6.50;99.90
61253;DHT22;47127;47.516;8.596;2023-04-03T02:49:48;6.60;99.90
61253;DHT22;47127;47.516;8.596;2023-04-03T02:52:14;6.60;99.90
61253;DHT22;47127;47.516;8.596;2023-04-03T02:54:40;6.60;99.90
61253;DHT22;47127;47.516;8.596;2023-04-03T02:57:07;6.30;99.90
61253;DHT22;47127;47.516;8.596;2023-04-03T02:59:36;6.30;99.90
61253;DHT22;47127;47.516;8.596;2023-04-03T03:02:03;6.30;99.90
61253;DHT22;47127;47.516;8.596;2023-04-03T03:04:29;6.30;99.90
61253;DHT22;47127;47.516;8.596;2023-04-03T03:06:54;6.10;99.90
61253;DHT22;47127;47.516;8.596;2023-04-03T03:09:20;6.10;99.90
61253;DHT22;47127;47.516;8.596;2023-04-03T03:11:47;6.20;99.90
61253;DHT22;47127;47.516;8.596;2023-04-03T03:14:12;6.30;99.90
61253;DHT22;47127;47.516;8.596;2023-04-03T03:16:38;6.40;99.90
61253;DHT22;47127;47.516;8.596;2023-04-03T03:19:04;6.30;99.90
61253;DHT22;47127;47.516;8.596;2023-04-03T03:21:29;6.30;99.90
61253;DHT22;47127;47.516;8.596;2023-04-03T03:23:55;6.40;99.90
61253;DHT22;47127;47.516;8.596;2023-04-03T03:26:21;6.40;99.90
61253;DHT22;47127;47.516;8.596;2023-04-03T03:28:46;6.50;99.90
61253;DHT22;47127;47.516;8.596;2023-04-03T03:31:12;6.50;99.90
61253;DHT22;47127;47.516;8.596;2023-04-03T03:33:38;6.50;99.90
61253;DHT22;47127;47.516;8.596;2023-04-03T03:36:04;6.30;99.90
61253;DHT22;47127;47.516;8.596;2023-04-03T03:38:29;6.10;99.90
61253;DHT22;47127;47.516;8.596;2023-04-03T03:40:55;6.00;99.90
61253;DHT22;47127;47.516;8.596;2023-04-03T03:43:21;6.00;99.90
61253;DHT22;47127;47.516;8.596;2023-04-03T03:45:50;5.90;99.90
61253;DHT22;47127;47.516;8.596;2023-04-03T03:48:16;5.60;99.90
61253;DHT22;47127;47.516;8.596;2023-04-03T03:50:42;5.70;99.90
61253;DHT22;47127;47.516;8.596;2023-04-03T03:53:07;5.60;99.90
61253;DHT22;47127;47.516;8.596;2023-04-03T03:55:33;5.70;99.90
61253;DHT22;47127;47.516;8.596;2023-04-03T03:57:59;5.70;99.90
61253;DHT22;47127;47.516;8.596;2023-04-03T04:00:26;5.60;99.90
61253;DHT22;47127;47.516;8.596;2023-04-03T04:02:52;5.70;99.90
61253;DHT22;47127;47.516;8.596;2023-04-03T04:05:17;5.70;99.90
61253;DHT22;47127;47.516;8.596;2023-04-03T04:07:43;5.50;99.90
61253;DHT22;47127;47.516;8.596;2023-04-03T04:10:09;5.50;99.90
61253;DHT22;47127;47.516;8.596;2023-04-03T04:12:34;5.50;99.90
61253;DHT22;47127;47.516;8.596;2023-04-03T04:15:01;5.40;99.90
61253;DHT22;47127;47.516;8.596;2023-04-03T04:17:26;5.50;99.90
61253;DHT22;47127;47.516;8.596;2023-04-03T04:19:52;5.60;99.90
61253;DHT22;47127;47.516;8.596;2023-04-03T04:22:18;5.60;99.90
61253;DHT22;47127;47.516;8.596;2023-04-03T04:24:43;5.50;99.90
61253;DHT22;47127;47.516;8.596;2023-04-03T04:27:09;5.60;99.90
61253;DHT22;47127;47.516;8.596;2023-04-03T04:29:34;5.30;99.90
61253;DHT22;47127;47.516;8.596;2023-04-03T04:32:03;5.60;99.90
61253;DHT22;47127;47.516;8.596;2023-04-03T04:34:28;5.60;99.90
61253;DHT22;47127;47.516;8.596;2023-04-03T04:39:21;5.40;99.90
61253;DHT22;47127;47.516;8.596;2023-04-03T04:41:46;5.40;99.90
61253;DHT22;47127;47.516;8.596;2023-04-03T04:44:12;5.50;99.90
61253;DHT22;47127;47.516;8.596;2023-04-03T04:46:37;5.50;99.90
61253;DHT22;47127;47.516;8.596;2023-04-03T04:49:04;5.50;99.90
61253;DHT22;47127;47.516;8.596;2023-04-03T04:51:31;5.50;99.90
61253;DHT22;47127;47.516;8.596;2023-04-03T04:53:56;5.50;99.90
61253;DHT22;47127;47.516;8.596;2023-04-03T04:56:22;5.40;99.90
61253;DHT22;47127;47.516;8.596;2023-04-03T04:58:48;5.30;99.90
61253;DHT22;47127;47.516;8.596;2023-04-03T05:01:13;5.50;99.90
61253;DHT22;47127;47.516;8.596;2023-04-03T05:03:39;5.50;99.90
61253;DHT22;47127;47.516;8.596;2023-04-03T05:06:05;5.70;99.90
61253;DHT22;47127;47.516;8.596;2023-04-03T05:08:33;5.50;99.90
61253;DHT22;47127;47.516;8.596;2023-04-03T05:10:58;5.40;99.90
61253;DHT22;47127;47.516;8.596;2023-04-03T05:13:24;5.30;99.90
61253;DHT22;47127;47.516;8.596;2023-04-03T05:15:55;5.40;99.90
61253;DHT22;47127;47.516;8.596;2023-04-03T05:18:24;5.60;99.90
61253;DHT22;47127;47.516;8.596;2023-04-03T05:20:58;5.60;99.90
61253;DHT22;47127;47.516;8.596;2023-04-03T05:23:24;5.80;99.90
61253;DHT22;47127;47.516;8.596;2023-04-03T05:25:50;5.50;99.90
61253;DHT22;47127;47.516;8.596;2023-04-03T05:28:16;5.20;99.90
61253;DHT22;47127;47.516;8.596;2023-04-03T05:30:44;5.00;99.90
61253;DHT22;47127;47.516;8.596;2023-04-03T05:33:10;3.90;99.90
61253;DHT22;47127;47.516;8.596;2023-04-03T05:35:39;4.90;99.90
61253;DHT22;47127;47.516;8.596;2023-04-03T05:38:09;5.30;99.90
61253;DHT22;47127;47.516;8.596;2023-04-03T05:40:35;5.20;99.90
61253;DHT22;47127;47.516;8.596;2023-04-03T05:43:03;5.00;99.90
61253;DHT22;47127;47.516;8.596;2023-04-03T05:45:29;5.30;99.90
61253;DHT22;47127;47.516;8.596;2023-04-03T05:47:58;5.60;99.90
61253;DHT22;47127;47.516;8.596;2023-04-03T05:50:24;5.50;99.90
61253;DHT22;47127;47.516;8.596;2023-04-03T05:52:54;5.30;99.90
61253;DHT22;47127;47.516;8.596;2023-04-03T05:55:24;5.40;99.90
61253;DHT22;47127;47.516;8.596;2023-04-03T05:57:53;5.50;99.90
61253;DHT22;47127;47.516;8.596;2023-04-03T06:00:19;6.10;99.90
61253;DHT22;47127;47.516;8.596;2023-04-03T06:02:45;5.50;99.90
61253;DHT22;47127;47.516;8.596;2023-04-03T06:05:16;5.60;99.90
61253;DHT22;47127;47.516;8.596;2023-04-03T06:07:42;5.60;99.90
61253;DHT22;47127;47.516;8.596;2023-04-03T06:10:13;5.40;99.90
61253;DHT22;47127;47.516;8.596;2023-04-03T06:12:40;5.30;99.90
61253;DHT22;47127;47.516;8.596;2023-04-03T06:15:11;5.50;99.90
61253;DHT22;47127;47.516;8.596;2023-04-03T06:17:49;5.70;99.90
61253;DHT22;47127;47.516;8.596;2023-04-03T06:20:24;7.90;99.90
61253;DHT22;47127;47.516;8.596;2023-04-03T06:22:50;5.90;99.90
61253;DHT22;47127;47.516;8.596;2023-04-03T06:25:16;5.80;99.90
61253;DHT22;47127;47.516;8.596;2023-04-03T06:27:52;5.90;99.90
61253;DHT22;47127;47.516;8.596;2023-04-03T06:30:28;6.00;99.90
61253;DHT22;47127;47.516;8.596;2023-04-03T06:32:56;5.90;99.90
61253;DHT22;47127;47.516;8.596;2023-04-03T06:35:22;6.00;99.70
61253;DHT22;47127;47.516;8.596;2023-04-03T06:37:49;6.00;99.50
61253;DHT22;47127;47.516;8.596;2023-04-03T06:40:22;5.90;99.80
61253;DHT22;47127;47.516;8.596;2023-04-03T06:42:48;6.00;99.90
61253;DHT22;47127;47.516;8.596;2023-04-03T06:45:14;5.80;99.90
61253;DHT22;47127;47.516;8.596;2023-04-03T06:47:43;5.90;99.90
61253;DHT22;47127;47.516;8.596;2023-04-03T06:50:15;6.10;99.30
61253;DHT22;47127;47.516;8.596;2023-04-03T06:52:42;6.80;99.30
61253;DHT22;47127;47.516;8.596;2023-04-03T06:55:09;6.20;99.10
61253;DHT22;47127;47.516;8.596;2023-04-03T06:57:35;6.00;99.50
61253;DHT22;47127;47.516;8.596;2023-04-03T07:00:03;6.30;99.50
61253;DHT22;47127;47.516;8.596;2023-04-03T07:02:29;6.40;99.50
61253;DHT22;47127;47.516;8.596;2023-04-03T07:04:55;6.30;99.20
61253;DHT22;47127;47.516;8.596;2023-04-03T07:07:20;6.30;99.50
61253;DHT22;47127;47.516;8.596;2023-04-03T07:09:46;6.30;98.60
61253;DHT22;47127;47.516;8.596;2023-04-03T07:12:13;6.00;98.60
61253;DHT22;47127;47.516;8.596;2023-04-03T07:14:39;6.10;98.60
61253;DHT22;47127;47.516;8.596;2023-04-03T07:17:05;6.10;98.60
61253;DHT22;47127;47.516;8.596;2023-04-03T07:19:30;6.40;98.20
61253;DHT22;47127;47.516;8.596;2023-04-03T07:21:56;6.50;98.50
61253;DHT22;47127;47.516;8.596;2023-04-03T07:24:22;6.60;97.90
61253;DHT22;47127;47.516;8.596;2023-04-03T07:26:52;6.60;97.50
61253;DHT22;47127;47.516;8.596;2023-04-03T07:29:18;6.60;97.20
61253;DHT22;47127;47.516;8.596;2023-04-03T07:31:44;6.60;97.60
61253;DHT22;47127;47.516;8.596;2023-04-03T07:34:10;6.50;98.00
61253;DHT22;47127;47.516;8.596;2023-04-03T07:36:36;6.60;98.30
61253;DHT22;47127;47.516;8.596;2023-04-03T07:39:03;6.70;97.00
61253;DHT22;47127;47.516;8.596;2023-04-03T07:41:28;6.70;96.30
61253;DHT22;47127;47.516;8.596;2023-04-03T07:43:55;6.70;97.20
61253;DHT22;47127;47.516;8.596;2023-04-03T07:48:48;6.80;96.70
61253;DHT22;47127;47.516;8.596;2023-04-03T07:51:14;6.70;96.90
61253;DHT22;47127;47.516;8.596;2023-04-03T07:53:40;6.70;96.50
61253;DHT22;47127;47.516;8.596;2023-04-03T07:56:06;6.70;97.20
61253;DHT22;47127;47.516;8.596;2023-04-03T07:58:32;6.80;96.70
61253;DHT22;47127;47.516;8.596;2023-04-03T08:00:58;6.80;96.80
61253;DHT22;47127;47.516;8.596;2023-04-03T08:03:24;7.10;96.70
61253;DHT22;47127;47.516;8.596;2023-04-03T08:05:50;7.20;96.20
61253;DHT22;47127;47.516;8.596;2023-04-03T08:08:20;7.00;97.00
61253;DHT22;47127;47.516;8.596;2023-04-03T08:10:53;7.10;96.90
61253;DHT22;47127;47.516;8.596;2023-04-03T08:13:20;7.20;95.80
61253;DHT22;47127;47.516;8.596;2023-04-03T08:15:46;7.30;96.10
61253;DHT22;47127;47.516;8.596;2023-04-03T08:18:13;7.20;96.20
61253;DHT22;47127;47.516;8.596;2023-04-03T08:20:40;7.20;96.00
61253;DHT22;47127;47.516;8.596;2023-04-03T08:23:06;7.10;96.00
61253;DHT22;47127;47.516;8.596;2023-04-03T08:25:33;7.20;95.80
61253;DHT22;47127;47.516;8.596;2023-04-03T08:27:59;7.20;96.00
61253;DHT22;47127;47.516;8.596;2023-04-03T08:30:26;7.10;96.10
61253;DHT22;47127;47.516;8.596;2023-04-03T08:32:51;6.90;96.60
61253;DHT22;47127;47.516;8.596;2023-04-03T08:35:17;7.10;96.20
61253;DHT22;47127;47.516;8.596;2023-04-03T08:37:42;7.30;95.50
61253;DHT22;47127;47.516;8.596;2023-04-03T08:40:14;7.10;96.10
61253;DHT22;47127;47.516;8.596;2023-04-03T08:43:03;7.00;96.60
61253;DHT22;47127;47.516;8.596;2023-04-03T08:45:46;7.30;96.40
61253;DHT22;47127;47.516;8.596;2023-04-03T08:48:21;7.50;96.20
61253;DHT22;47127;47.516;8.596;2023-04-03T08:50:53;7.70;95.80
61253;DHT22;47127;47.516;8.596;2023-04-03T08:53:29;7.20;96.50
61253;DHT22;47127;47.516;8.596;2023-04-03T08:55:58;7.50;96.10
61253;DHT22;47127;47.516;8.596;2023-04-03T08:58:37;7.30;96.20
61253;DHT22;47127;47.516;8.596;2023-04-03T09:01:17;7.10;95.80
61253;DHT22;47127;47.516;8.596;2023-04-03T09:03:44;7.20;96.70
61253;DHT22;47127;47.516;8.596;2023-04-03T09:06:31;7.20;96.10
61253;DHT22;47127;47.516;8.596;2023-04-03T09:12:12;7.30;96.20
61253;DHT22;47127;47.516;8.596;2023-04-03T09:26:07;7.50;96.90
61253;DHT22;47127;47.516;8.596;2023-04-03T09:28:38;7.80;96.30
61253;DHT22;47127;47.516;8.596;2023-04-03T09:31:20;7.90;95.80
61253;DHT22;47127;47.516;8.596;2023-04-03T09:33:48;7.90;95.70
61253;DHT22;47127;47.516;8.596;2023-04-03T09:36:38;8.00;95.30
61253;DHT22;47127;47.516;8.596;2023-04-03T09:39:07;7.90;95.20
61253;DHT22;47127;47.516;8.596;2023-04-03T09:41:35;7.50;95.40
61253;DHT22;47127;47.516;8.596;2023-04-03T09:44:00;8.00;95.70
61253;DHT22;47127;47.516;8.596;2023-04-03T09:46:34;7.90;95.40
61253;DHT22;47127;47.516;8.596;2023-04-03T09:49:03;8.00;96.00
61253;DHT22;47127;47.516;8.596;2023-04-03T09:51:30;8.10;95.50
61253;DHT22;47127;47.516;8.596;2023-04-03T09:53:57;7.80;96.20
61253;DHT22;47127;47.516;8.596;2023-04-03T09:56:25;7.70;96.00
61253;DHT22;47127;47.516;8.596;2023-04-03T09:59:08;7.80;96.00
61253;DHT22;47127;47.516;8.596;2023-04-03T10:01:57;7.60;96.70
61253;DHT22;47127;47.516;8.596;2023-04-03T10:04:23;7.60;96.30
61253;DHT22;47127;47.516;8.596;2023-04-03T10:06:52;7.70;96.10
61253;DHT22;47127;47.516;8.596;2023-04-03T10:09:23;7.80;96.20
61253;DHT22;47127;47.516;8.596;2023-04-03T10:12:12;7.10;96.80
61253;DHT22;47127;47.516;8.596;2023-04-03T10:15:01;7.30;97.00
61253;DHT22;47127;47.516;8.596;2023-04-03T10:23:26;6.90;97.90
61253;DHT22;47127;47.516;8.596;2023-04-03T10:26:16;7.30;97.90
61253;DHT22;47127;47.516;8.596;2023-04-03T10:28:57;7.10;98.00
61253;DHT22;47127;47.516;8.596;2023-04-03T10:31:46;7.30;98.30
61253;DHT22;47127;47.516;8.596;2023-04-03T10:34:29;7.40;97.60
61253;DHT22;47127;47.516;8.596;2023-04-03T10:37:27;7.70;97.40
61253;DHT22;47127;47.516;8.596;2023-04-03T10:40:02;7.90;97.30
61253;DHT22;47127;47.516;8.596;2023-04-03T10:45:27;8.60;97.50
61253;DHT22;47127;47.516;8.596;2023-04-03T10:53:56;7.70;97.90
61253;DHT22;47127;47.516;8.596;2023-04-03T10:59:25;7.80;98.20
61253;DHT22;47127;47.516;8.596;2023-04-03T11:02:04;7.80;98.10
61253;DHT22;47127;47.516;8.596;2023-04-03T11:04:34;8.10;97.80
61253;DHT22;47127;47.516;8.596;2023-04-03T11:07:10;8.10;97.80
61253;DHT22;47127;47.516;8.596;2023-04-03T11:09:42;8.20;98.20
61253;DHT22;47127;47.516;8.596;2023-04-03T11:12:46;8.00;98.30
61253;DHT22;47127;47.516;8.596;2023-04-03T11:15:20;7.90;98.40
61253;DHT22;47127;47.516;8.596;2023-04-03T11:17:58;7.90;98.10
61253;DHT22;47127;47.516;8.596;2023-04-03T11:20:32;7.90;97.80
61253;DHT22;47127;47.516;8.596;2023-04-03T11:25:38;8.10;97.70
61253;DHT22;47127;47.516;8.596;2023-04-03T11:28:12;8.20;97.50
61253;DHT22;47127;47.516;8.596;2023-04-03T11:38:47;7.90;97.60
61253;DHT22;47127;47.516;8.596;2023-04-03T11:41:14;7.90;98.00
61253;DHT22;47127;47.516;8.596;2023-04-03T11:43:54;8.00;97.60
61253;DHT22;47127;47.516;8.596;2023-04-03T11:46:21;8.00;97.70
61253;DHT22;47127;47.516;8.596;2023-04-03T11:48:49;8.10;97.50
61253;DHT22;47127;47.516;8.596;2023-04-03T11:53:53;8.10;97.70
61253;DHT22;47127;47.516;8.596;2023-04-03T12:01:55;7.80;98.50
61253;DHT22;47127;47.516;8.596;2023-04-03T12:04:24;7.90;98.40
61253;DHT22;47127;47.516;8.596;2023-04-03T12:07:08;7.90;98.50
61253;DHT22;47127;47.516;8.596;2023-04-03T12:12:27;8.00;98.10
61253;DHT22;47127;47.516;8.596;2023-04-03T12:14:53;7.90;98.10
61253;DHT22;47127;47.516;8.596;2023-04-03T12:17:26;8.00;98.30
61253;DHT22;47127;47.516;8.596;2023-04-03T12:19:52;8.20;97.90
61253;DHT22;47127;47.516;8.596;2023-04-03T12:22:19;8.20;97.30
61253;DHT22;47127;47.516;8.596;2023-04-03T12:24:48;8.30;97.70
61253;DHT22;47127;47.516;8.596;2023-04-03T12:30:12;8.30;97.00
61253;DHT22;47127;47.516;8.596;2023-04-03T12:33:10;8.20;96.90
61253;DHT22;47127;47.516;8.596;2023-04-03T12:42:03;8.40;97.30
61253;DHT22;47127;47.516;8.596;2023-04-03T12:50:29;8.60;97.00
61253;DHT22;47127;47.516;8.596;2023-04-03T12:53:11;8.20;98.10
61253;DHT22;47127;47.516;8.596;2023-04-03T12:55:37;8.30;97.20
61253;DHT22;47127;47.516;8.596;2023-04-03T12:58:26;8.20;97.30
61253;DHT22;47127;47.516;8.596;2023-04-03T13:01:19;8.40;97.20
61253;DHT22;47127;47.516;8.596;2023-04-03T13:03:48;7.90;97.50
61253;DHT22;47127;47.516;8.596;2023-04-03T13:06:18;8.10;97.80
61253;DHT22;47127;47.516;8.596;2023-04-03T13:08:54;8.30;97.60
61253;DHT22;47127;47.516;8.596;2023-04-03T13:11:24;8.30;97.40
61253;DHT22;47127;47.516;8.596;2023-04-03T13:14:01;8.40;97.40
61253;DHT22;47127;47.516;8.596;2023-04-03T13:16:31;8.30;97.20
61253;DHT22;47127;47.516;8.596;2023-04-03T13:18:58;8.10;96.70
61253;DHT22;47127;47.516;8.596;2023-04-03T13:21:30;8.20;96.80
61253;DHT22;47127;47.516;8.596;2023-04-03T13:24:00;8.10;96.20
61253;DHT22;47127;47.516;8.596;2023-04-03T13:26:29;8.00;96.80
61253;DHT22;47127;47.516;8.596;2023-04-03T13:29:00;7.90;96.80
61253;DHT22;47127;47.516;8.596;2023-04-03T13:31:35;7.90;96.60
61253;DHT22;47127;47.516;8.596;2023-04-03T13:34:13;8.00;96.50
61253;DHT22;47127;47.516;8.596;2023-04-03T13:41:47;8.30;95.80
61253;DHT22;47127;47.516;8.596;2023-04-03T13:46:49;8.40;95.50
61253;DHT22;47127;47.516;8.596;2023-04-03T13:49:29;8.40;95.30
61253;DHT22;47127;47.516;8.596;2023-04-03T13:51:55;8.30;95.00
61253;DHT22;47127;47.516;8.596;2023-04-03T13:54:31;8.40;95.60
61253;DHT22;47127;47.516;8.596;2023-04-03T13:56:58;8.40;95.20
61253;DHT22;47127;47.516;8.596;2023-04-03T13:59:28;8.50;95.20
61253;DHT22;47127;47.516;8.596;2023-04-03T14:06:56;8.10;95.10
61253;DHT22;47127;47.516;8.596;2023-04-03T14:09:23;8.20;95.30
61253;DHT22;47127;47.516;8.596;2023-04-03T14:11:54;8.10;95.20
61253;DHT22;47127;47.516;8.596;2023-04-03T14:14:32;8.30;94.70
61253;DHT22;47127;47.516;8.596;2023-04-03T14:17:00;8.10;94.40
61253;DHT22;47127;47.516;8.596;2023-04-03T14:19:29;8.20;94.60
61253;DHT22;47127;47.516;8.596;2023-04-03T14:21:56;8.40;94.10
61253;DHT22;47127;47.516;8.596;2023-04-03T14:24:23;8.40;94.20
61253;DHT22;47127;47.516;8.596;2023-04-03T14:26:51;8.50;93.70
61253;DHT22;47127;47.516;8.596;2023-04-03T14:29:17;8.50;93.20
61253;DHT22;47127;47.516;8.596;2023-04-03T14:31:44;8.40;92.70
61253;DHT22;47127;47.516;8.596;2023-04-03T14:34:11;8.50;92.90
61253;DHT22;47127;47.516;8.596;2023-04-03T14:36:37;8.10;93.00
61253;DHT22;47127;47.516;8.596;2023-04-03T14:39:05;8.20;92.90
61253;DHT22;47127;47.516;8.596;2023-04-03T14:41:32;8.40;92.50
61253;DHT22;47127;47.516;8.596;2023-04-03T14:43:59;8.50;92.70
61253;DHT22;47127;47.516;8.596;2023-04-03T14:46:27;8.50;93.10
61253;DHT22;47127;47.516;8.596;2023-04-03T14:48:53;8.30;93.40
61253;DHT22;47127;47.516;8.596;2023-04-03T14:51:20;8.30;94.10
61253;DHT22;47127;47.516;8.596;2023-04-03T14:53:45;8.30;93.90
61253;DHT22;47127;47.516;8.596;2023-04-03T14:56:26;8.40;93.90
61253;DHT22;47127;47.516;8.596;2023-04-03T14:58:56;8.40;93.00
61253;DHT22;47127;47.516;8.596;2023-04-03T15:01:22;8.10;93.90
61253;DHT22;47127;47.516;8.596;2023-04-03T15:03:47;8.20;94.50
61253;DHT22;47127;47.516;8.596;2023-04-03T15:06:14;8.20;93.80
61253;DHT22;47127;47.516;8.596;2023-04-03T15:08:41;8.10;93.90
61253;DHT22;47127;47.516;8.596;2023-04-03T15:11:11;8.10;94.00
61253;DHT22;47127;47.516;8.596;2023-04-03T15:13:37;8.10;94.30
61253;DHT22;47127;47.516;8.596;2023-04-03T15:16:04;8.10;93.90
61253;DHT22;47127;47.516;8.596;2023-04-03T15:18:35;8.10;94.10
61253;DHT22;47127;47.516;8.596;2023-04-03T15:21:05;8.20;94.70
61253;DHT22;47127;47.516;8.596;2023-04-03T15:23:31;8.00;94.60
61253;DHT22;47127;47.516;8.596;2023-04-03T15:25:57;8.10;93.90
61253;DHT22;47127;47.516;8.596;2023-04-03T15:28:28;8.20;93.70
61253;DHT22;47127;47.516;8.596;2023-04-03T15:30:55;8.30;94.20
61253;DHT22;47127;47.516;8.596;2023-04-03T15:33:21;8.20;93.60
61253;DHT22;47127;47.516;8.596;2023-04-03T15:35:47;8.40;94.00
61253;DHT22;47127;47.516;8.596;2023-04-03T15:38:12;8.20;94.10
61253;DHT22;47127;47.516;8.596;2023-04-03T15:40:38;8.30;93.20
61253;DHT22;47127;47.516;8.596;2023-04-03T15:43:05;8.30;93.40
61253;DHT22;47127;47.516;8.596;2023-04-03T15:45:31;8.10;92.90
61253;DHT22;47127;47.516;8.596;2023-04-03T15:47:57;8.20;93.00
61253;DHT22;47127;47.516;8.596;2023-04-03T15:50:23;7.90;92.80
61253;DHT22;47127;47.516;8.596;2023-04-03T15:52:50;7.90;93.10
61253;DHT22;47127;47.516;8.596;2023-04-03T15:55:21;7.90;92.70
61253;DHT22;47127;47.516;8.596;2023-04-03T15:57:47;8.10;92.80
61253;DHT22;47127;47.516;8.596;2023-04-03T16:00:13;8.30;92.30
61253;DHT22;47127;47.516;8.596;2023-04-03T16:02:39;8.30;92.40
61253;DHT22;47127;47.516;8.596;2023-04-03T16:05:05;8.30;91.80
61253;DHT22;47127;47.516;8.596;2023-04-03T16:07:31;8.10;91.60
61253;DHT22;47127;47.516;8.596;2023-04-03T16:09:56;8.10;91.60
61253;DHT22;47127;47.516;8.596;2023-04-03T16:12:22;8.00;91.50
61253;DHT22;47127;47.516;8.596;2023-04-03T16:14:48;7.80;92.30
61253;DHT22;47127;47.516;8.596;2023-04-03T16:17:13;7.80;92.10
61253;DHT22;47127;47.516;8.596;2023-04-03T16:19:39;7.80;92.60
61253;DHT22;47127;47.516;8.596;2023-04-03T16:22:05;7.90;92.00
61253;DHT22;47127;47.516;8.596;2023-04-03T16:24:30;7.80;91.90
61253;DHT22;47127;47.516;8.596;2023-04-03T16:26:57;7.80;91.90
61253;DHT22;47127;47.516;8.596;2023-04-03T16:29:23;7.70;91.90
61253;DHT22;47127;47.516;8.596;2023-04-03T16:31:49;7.80;92.30
61253;DHT22;47127;47.516;8.596;2023-04-03T16:34:15;7.90;92.50
61253;DHT22;47127;47.516;8.596;2023-04-03T16:36:41;7.90;92.40
61253;DHT22;47127;47.516;8.596;2023-04-03T16:39:07;8.00;92.60
61253;DHT22;47127;47.516;8.596;2023-04-03T16:41:35;8.00;92.40
61253;DHT22;47127;47.516;8.596;2023-04-03T16:44:00;7.90;92.70
61253;DHT22;47127;47.516;8.596;2023-04-03T16:46:26;8.00;92.80
61253;DHT22;47127;47.516;8.596;2023-04-03T16:48:51;7.90;92.90
61253;DHT22;47127;47.516;8.596;2023-04-03T16:51:17;7.80;93.50
61253;DHT22;47127;47.516;8.596;2023-04-03T16:53:43;7.70;93.00
61253;DHT22;47127;47.516;8.596;2023-04-03T16:56:08;7.60;93.60
61253;DHT22;47127;47.516;8.596;2023-04-03T16:58:34;7.50;94.10
61253;DHT22;47127;47.516;8.596;2023-04-03T17:01:11;7.50;94.00
61253;DHT22;47127;47.516;8.596;2023-04-03T17:03:37;7.40;94.00
61253;DHT22;47127;47.516;8.596;2023-04-03T17:06:03;7.50;94.20
61253;DHT22;47127;47.516;8.596;2023-04-03T17:08:28;7.40;94.10
61253;DHT22;47127;47.516;8.596;2023-04-03T17:10:54;7.50;94.30
61253;DHT22;47127;47.516;8.596;2023-04-03T17:13:20;7.30;94.00
61253;DHT22;47127;47.516;8.596;2023-04-03T17:15:46;7.40;93.70
61253;DHT22;47127;47.516;8.596;2023-04-03T17:18:11;7.00;94.30
61253;DHT22;47127;47.516;8.596;2023-04-03T17:20:37;7.00;94.50
61253;DHT22;47127;47.516;8.596;2023-04-03T17:23:04;7.00;94.60
61253;DHT22;47127;47.516;8.596;2023-04-03T17:25:29;7.10;94.60